createdAt,value
2023-10-19T00:01:16.816Z,11.10
2023-10-19T00:04:08.265Z,11.10
2023-10-19T00:06:55.476Z,11.10
2023-10-19T00:09:40.741Z,11.00
2023-10-19T00:12:27.540Z,11.00
2023-10-19T00:15:13.554Z,11.10
2023-10-19T00:18:06.908Z,11.20
2023-10-19T00:20:55.474Z,11.20
2023-10-19T00:23:41.828Z,11.20
2023-10-19T00:26:31.371Z,11.30
2023-10-19T00:29:31.278Z,11.20
2023-10-19T00:32:20.273Z,11.20
2023-10-19T00:35:27.825Z,11.20
2023-10-19T00:38:40.246Z,11.20
2023-10-19T00:41:30.487Z,11.30
2023-10-19T00:44:17.817Z,11.40
2023-10-19T00:47:08.646Z,11.30
2023-10-19T00:49:56.282Z,11.40
2023-10-19T00:52:44.964Z,11.40
2023-10-19T00:55:34.886Z,11.40
2023-10-19T00:58:30.218Z,11.40
2023-10-19T01:01:18.775Z,11.40
2023-10-19T01:04:05.492Z,11.30
2023-10-19T01:07:02.103Z,11.40
2023-10-19T01:09:48.496Z,11.40
2023-10-19T01:12:40.196Z,11.30
2023-10-19T01:15:30.783Z,11.40
2023-10-19T01:18:17.998Z,11.50
2023-10-19T01:21:07.701Z,11.50
2023-10-19T01:23:55.443Z,11.50
2023-10-19T01:26:42.156Z,11.60
2023-10-19T01:29:29.320Z,11.60
2023-10-19T01:32:16.451Z,11.60
2023-10-19T01:35:02.696Z,11.60
2023-10-19T01:37:48.222Z,11.60
2023-10-19T01:40:36.283Z,11.60
2023-10-19T01:43:22.515Z,11.60
2023-10-19T01:46:13.550Z,11.60
2023-10-19T01:48:59.969Z,11.60
2023-10-19T01:51:47.974Z,11.70
2023-10-19T01:54:35.898Z,11.70
2023-10-19T01:57:22.595Z,11.70
2023-10-19T02:00:12.394Z,11.70
2023-10-19T02:02:58.481Z,11.70
2023-10-19T02:05:44.611Z,11.70
2023-10-19T02:08:30.210Z,11.70
2023-10-19T02:11:19.072Z,11.80
2023-10-19T02:14:14.976Z,11.80
2023-10-19T02:17:03.399Z,11.80
2023-10-19T02:19:49.835Z,11.90
2023-10-19T02:22:36.794Z,11.90
2023-10-19T02:25:22.283Z,11.90
2023-10-19T02:28:10.135Z,11.90
2023-10-19T02:30:58.875Z,11.90
2023-10-19T02:33:47.920Z,11.90
2023-10-19T02:36:34.626Z,11.90
2023-10-19T02:39:20.266Z,11.90
2023-10-19T02:42:06.988Z,11.90
2023-10-19T02:44:53.579Z,11.90
2023-10-19T02:47:42.907Z,11.90
2023-10-19T02:50:29.049Z,11.90
2023-10-19T02:53:14.837Z,11.90
2023-10-19T02:56:03.034Z,12.00
2023-10-19T02:58:50.271Z,11.90
2023-10-19T03:01:36.813Z,12.00
2023-10-19T03:04:23.232Z,11.90
2023-10-19T03:07:10.684Z,12.00
2023-10-19T03:09:56.051Z,12.00
2023-10-19T03:12:42.349Z,12.00
2023-10-19T03:15:30.827Z,12.00
2023-10-19T03:18:17.017Z,12.00
2023-10-19T03:21:06.907Z,12.00
2023-10-19T03:23:51.909Z,12.00
2023-10-19T03:26:44.557Z,12.00
2023-10-19T03:29:32.964Z,12.00
2023-10-19T03:32:23.044Z,12.10
2023-10-19T03:35:09.632Z,12.00
2023-10-19T03:37:59.521Z,12.00
2023-10-19T03:40:52.419Z,12.00
2023-10-19T03:43:41.334Z,12.10
2023-10-19T03:46:32.291Z,12.00
2023-10-19T03:49:20.854Z,12.00
2023-10-19T03:55:01.055Z,12.00
2023-10-19T03:57:51.607Z,12.00
2023-10-19T04:00:38.315Z,12.00
2023-10-19T04:03:26.063Z,12.00
2023-10-19T04:06:15.024Z,12.00
2023-10-19T04:09:01.587Z,12.00
2023-10-19T04:11:53.508Z,12.10
2023-10-19T04:14:40.810Z,12.10
2023-10-19T04:17:27.267Z,12.10
2023-10-19T04:20:30.191Z,12.10
2023-10-19T04:23:17.556Z,12.10
2023-10-19T04:26:11.691Z,12.10
2023-10-19T04:29:00.877Z,12.10
2023-10-19T04:31:51.212Z,12.10
2023-10-19T04:34:37.900Z,12.10
2023-10-19T04:37:25.409Z,12.10
2023-10-19T04:40:13.010Z,12.10
2023-10-19T04:42:59.408Z,12.10
2023-10-19T04:45:47.160Z,12.10
2023-10-19T04:48:33.329Z,12.10
2023-10-19T04:51:19.697Z,12.10
2023-10-19T04:54:06.759Z,12.10
2023-10-19T04:56:56.814Z,12.20
2023-10-19T04:59:46.427Z,12.20
2023-10-19T05:02:34.217Z,12.20
2023-10-19T05:05:20.706Z,12.20
2023-10-19T05:08:07.656Z,12.20
2023-10-19T05:10:55.463Z,12.20
2023-10-19T05:13:41.595Z,12.20
2023-10-19T05:16:28.021Z,12.30
2023-10-19T05:19:15.710Z,12.30
2023-10-19T05:22:02.454Z,12.50
2023-10-19T05:24:48.860Z,12.50
2023-10-19T05:27:35.760Z,12.40
2023-10-19T05:30:23.596Z,12.50
2023-10-19T05:33:10.215Z,12.50
2023-10-19T05:35:58.189Z,12.50
2023-10-19T05:38:44.508Z,12.50
2023-10-19T05:41:32.243Z,12.60
2023-10-19T05:44:18.657Z,12.50
2023-10-19T05:47:05.257Z,12.50
2023-10-19T05:49:51.419Z,12.50
2023-10-19T05:52:39.319Z,12.50
2023-10-19T05:55:25.660Z,12.50
2023-10-19T05:58:12.325Z,12.50
2023-10-19T06:01:00.701Z,12.60
2023-10-19T06:03:47.247Z,12.60
2023-10-19T06:06:33.335Z,12.60
2023-10-19T06:09:21.499Z,12.60
2023-10-19T06:12:10.293Z,12.60
2023-10-19T06:14:57.004Z,12.70
2023-10-19T06:17:44.842Z,12.80
2023-10-19T06:20:31.220Z,12.80
2023-10-19T06:23:17.976Z,12.80
2023-10-19T06:26:13.485Z,12.80
2023-10-19T06:29:00.789Z,12.80
2023-10-19T06:31:47.547Z,12.80
2023-10-19T06:34:34.185Z,12.90
2023-10-19T06:37:20.392Z,12.90
2023-10-19T06:40:08.495Z,12.90
2023-10-19T06:42:57.716Z,13.00
2023-10-19T06:45:46.821Z,13.00
2023-10-19T06:48:33.033Z,13.10
2023-10-19T06:51:19.899Z,13.10
2023-10-19T06:54:09.290Z,13.20
2023-10-19T06:56:56.426Z,13.20
2023-10-19T06:59:44.409Z,13.20
2023-10-19T07:02:30.893Z,13.20
2023-10-19T07:05:22.827Z,13.20
2023-10-19T07:08:09.514Z,13.20
2023-10-19T07:10:56.319Z,13.30
2023-10-19T07:13:42.459Z,13.30
2023-10-19T07:16:31.037Z,13.30
2023-10-19T07:19:17.392Z,13.30
2023-10-19T07:22:05.428Z,13.40
2023-10-19T07:24:52.142Z,13.40
2023-10-19T07:27:38.913Z,13.40
2023-10-19T07:30:28.145Z,13.50
2023-10-19T07:33:18.498Z,13.50
2023-10-19T07:36:09.515Z,13.50
2023-10-19T07:38:56.407Z,13.50
2023-10-19T07:41:43.350Z,13.60
2023-10-19T07:44:31.465Z,13.60
2023-10-19T07:47:17.957Z,13.60
2023-10-19T07:50:06.792Z,13.60
2023-10-19T07:52:55.187Z,13.60
2023-10-19T07:55:42.032Z,13.60
2023-10-19T07:58:28.742Z,13.70
2023-10-19T08:01:15.372Z,13.70
2023-10-19T08:04:01.773Z,13.70
2023-10-19T08:06:49.491Z,13.80
2023-10-19T08:09:36.273Z,13.80
2023-10-19T08:12:23.244Z,13.80
2023-10-19T08:15:12.255Z,13.90
2023-10-19T08:17:58.479Z,13.90
2023-10-19T08:20:46.289Z,13.90
2023-10-19T08:23:33.943Z,13.90
2023-10-19T08:26:20.470Z,14.00
2023-10-19T08:29:13.778Z,14.00
2023-10-19T08:32:00.439Z,14.10
2023-10-19T08:34:46.954Z,14.20
2023-10-19T08:37:33.446Z,14.30
2023-10-19T08:40:22.709Z,14.40
2023-10-19T08:43:14.371Z,14.50
2023-10-19T08:46:00.901Z,14.60
2023-10-19T08:48:48.083Z,14.60
2023-10-19T08:51:36.144Z,14.80
2023-10-19T08:54:22.692Z,14.90
2023-10-19T08:57:11.103Z,14.90
2023-10-19T08:59:59.690Z,15.00
2023-10-19T09:02:46.196Z,15.00
2023-10-19T09:05:32.454Z,15.10
2023-10-19T09:08:19.839Z,15.20
2023-10-19T09:11:09.398Z,15.40
2023-10-19T09:13:58.591Z,15.50
2023-10-19T09:16:57.500Z,15.60
2023-10-19T09:19:44.589Z,15.70
2023-10-19T09:22:37.972Z,15.80
2023-10-19T09:25:24.949Z,16.00
2023-10-19T09:28:11.669Z,16.00
2023-10-19T09:31:00.128Z,16.20
2023-10-19T09:33:48.214Z,16.30
2023-10-19T09:36:34.503Z,16.40
2023-10-19T09:39:20.704Z,16.40
2023-10-19T09:42:11.812Z,16.50
2023-10-19T09:45:06.687Z,16.60
2023-10-19T09:47:55.395Z,16.60
2023-10-19T09:50:41.798Z,16.60
2023-10-19T09:53:29.511Z,16.60
2023-10-19T09:56:20.258Z,16.70
2023-10-19T09:59:08.786Z,16.80
2023-10-19T10:02:10.475Z,16.80
2023-10-19T10:04:58.710Z,16.80
2023-10-19T10:07:44.846Z,16.80
2023-10-19T10:10:30.929Z,16.80
2023-10-19T10:13:40.885Z,16.80
2023-10-19T10:16:28.758Z,16.80
2023-10-19T10:19:22.864Z,16.90
2023-10-19T10:22:15.222Z,17.00
2023-10-19T10:25:01.910Z,17.20
2023-10-19T10:27:52.896Z,17.70
2023-10-19T10:30:39.027Z,18.00
2023-10-19T10:33:41.741Z,18.10
2023-10-19T10:36:28.226Z,18.00
2023-10-19T10:39:17.734Z,18.20
2023-10-19T10:42:06.132Z,18.40
2023-10-19T10:44:56.529Z,18.70
2023-10-19T10:47:47.135Z,19.10
2023-10-19T10:50:33.491Z,19.30
2023-10-19T10:53:19.659Z,19.40
2023-10-19T10:56:07.334Z,19.20
2023-10-19T10:58:54.456Z,19.10
2023-10-19T11:01:42.705Z,18.90
2023-10-19T11:04:28.832Z,18.90
2023-10-19T11:07:23.581Z,18.90
2023-10-19T11:10:11.099Z,19.20
2023-10-19T11:13:03.630Z,19.00
2023-10-19T11:15:51.219Z,18.80
2023-10-19T11:18:40.473Z,18.60
2023-10-19T11:21:26.730Z,18.50
2023-10-19T11:24:27.147Z,18.40
2023-10-19T11:27:13.442Z,18.50
2023-10-19T11:30:05.392Z,18.60
2023-10-19T11:32:53.941Z,18.90
2023-10-19T11:35:40.012Z,19.10
2023-10-19T11:38:26.126Z,19.30
2023-10-19T11:41:13.563Z,19.50
2023-10-19T11:44:01.111Z,19.90
2023-10-19T11:46:49.590Z,20.20
2023-10-19T11:49:35.903Z,20.20
2023-10-19T11:52:22.481Z,20.30
2023-10-19T11:55:10.235Z,20.30
2023-10-19T11:57:56.672Z,20.20
2023-10-19T12:00:44.665Z,19.90
2023-10-19T12:03:32.552Z,19.80
2023-10-19T12:06:21.284Z,19.70
2023-10-19T12:09:15.763Z,19.50
2023-10-19T12:12:01.891Z,19.50
2023-10-19T12:14:48.062Z,19.40
2023-10-19T12:17:34.371Z,19.50
2023-10-19T12:20:23.013Z,19.80
2023-10-19T12:23:09.564Z,20.20
2023-10-19T12:25:58.156Z,20.50
2023-10-19T12:28:49.175Z,20.50
2023-10-19T12:31:36.290Z,20.30
2023-10-19T12:34:23.835Z,20.20
2023-10-19T12:37:13.828Z,19.90
2023-10-19T12:40:00.872Z,19.80
2023-10-19T12:42:47.150Z,19.60
2023-10-19T12:45:37.966Z,19.50
2023-10-19T12:48:26.628Z,19.40
2023-10-19T12:51:13.252Z,19.30
2023-10-19T12:54:04.304Z,19.20
2023-10-19T12:56:50.963Z,19.10
2023-10-19T12:59:38.567Z,19.10
2023-10-19T13:02:25.764Z,19.00
2023-10-19T13:05:13.592Z,19.00
2023-10-19T13:08:00.177Z,18.80
2023-10-19T13:10:53.195Z,18.80
2023-10-19T13:13:40.357Z,18.70
2023-10-19T13:16:26.534Z,18.60
2023-10-19T13:19:14.783Z,18.60
2023-10-19T13:22:06.206Z,18.60
2023-10-19T13:24:52.349Z,18.50
2023-10-19T13:27:41.134Z,18.50
2023-10-19T13:30:27.556Z,18.40
2023-10-19T13:33:14.613Z,18.40
2023-10-19T13:36:00.693Z,18.40
2023-10-19T13:38:47.322Z,18.40
2023-10-19T13:41:33.458Z,18.40
2023-10-19T13:44:23.261Z,18.40
2023-10-19T13:47:10.316Z,18.30
2023-10-19T13:49:56.819Z,18.20
2023-10-19T13:52:43.058Z,18.10
2023-10-19T13:55:29.587Z,18.10
2023-10-19T13:58:16.230Z,18.10
2023-10-19T14:01:04.633Z,18.00
2023-10-19T14:03:53.862Z,18.00
2023-10-19T14:06:40.020Z,18.00
2023-10-19T14:09:27.426Z,18.00
2023-10-19T14:12:13.777Z,18.00
2023-10-19T14:15:00.942Z,18.00
2023-10-19T14:17:52.058Z,18.00
2023-10-19T14:20:39.939Z,18.00
2023-10-19T14:23:26.257Z,17.90
2023-10-19T14:26:13.361Z,17.90
2023-10-19T14:29:00.034Z,17.90
2023-10-19T14:31:46.635Z,17.90
2023-10-19T14:34:34.300Z,17.80
2023-10-19T14:37:20.473Z,17.90
2023-10-19T14:40:11.217Z,17.90
2023-10-19T14:42:58.572Z,17.90
2023-10-19T14:45:45.088Z,17.90
2023-10-19T14:48:31.470Z,17.90
2023-10-19T14:51:19.202Z,17.80
2023-10-19T14:54:05.935Z,17.90
2023-10-19T14:56:52.263Z,17.90
2023-10-19T14:59:38.790Z,17.80
2023-10-19T15:02:25.309Z,17.90
2023-10-19T15:05:14.255Z,17.90
2023-10-19T15:08:01.970Z,18.10
2023-10-19T15:10:48.162Z,18.10
2023-10-19T15:13:35.025Z,18.10
2023-10-19T15:16:21.741Z,18.20
2023-10-19T15:19:09.842Z,18.20
2023-10-19T15:21:57.487Z,18.10
2023-10-19T15:24:45.368Z,18.10
2023-10-19T15:27:32.196Z,18.10
2023-10-19T15:30:21.335Z,18.00
2023-10-19T15:33:08.277Z,18.00
2023-10-19T15:35:54.669Z,17.90
2023-10-19T15:38:41.357Z,17.80
2023-10-19T15:41:29.188Z,17.80
2023-10-19T15:44:15.813Z,17.80
2023-10-19T15:47:02.180Z,17.70
2023-10-19T15:49:50.318Z,17.70
2023-10-19T15:52:41.262Z,17.70
2023-10-19T15:55:27.630Z,17.60
2023-10-19T15:58:15.469Z,17.60
2023-10-19T16:01:01.825Z,17.60
2023-10-19T16:03:48.150Z,17.50
2023-10-19T16:06:34.338Z,17.50
2023-10-19T16:09:21.566Z,17.40
2023-10-19T16:12:09.061Z,17.40
2023-10-19T16:14:57.096Z,17.40
2023-10-19T16:17:44.630Z,17.40
2023-10-19T16:20:31.109Z,17.30
2023-10-19T16:23:17.490Z,17.30
2023-10-19T16:26:04.820Z,17.30
2023-10-19T16:28:51.192Z,17.30
2023-10-19T16:31:39.705Z,17.30
2023-10-19T16:34:25.857Z,17.30
2023-10-19T16:37:12.358Z,17.20
2023-10-19T16:39:59.539Z,17.20
2023-10-19T16:42:45.734Z,17.20
2023-10-19T16:45:33.923Z,17.20
2023-10-19T16:48:22.510Z,17.10
2023-10-19T16:51:09.154Z,17.10
2023-10-19T16:53:55.390Z,17.10
2023-10-19T16:56:47.439Z,17.10
2023-10-19T16:59:33.883Z,17.00
2023-10-19T17:02:20.196Z,17.00
2023-10-19T17:05:08.574Z,17.00
2023-10-19T17:07:55.151Z,17.00
2023-10-19T17:10:41.484Z,17.00
2023-10-19T17:13:27.681Z,17.00
2023-10-19T17:16:14.062Z,16.90
2023-10-19T17:19:00.267Z,16.90
2023-10-19T17:21:48.658Z,17.00
2023-10-19T17:24:35.204Z,17.00
2023-10-19T17:27:21.847Z,16.90
2023-10-19T17:30:09.236Z,16.90
2023-10-19T17:33:01.189Z,16.80
2023-10-19T17:35:51.770Z,16.80
2023-10-19T17:38:39.651Z,16.80
2023-10-19T17:41:26.833Z,16.80
2023-10-19T17:44:12.950Z,16.70
2023-10-19T17:47:05.724Z,16.70
2023-10-19T17:49:53.450Z,16.60
2023-10-19T17:52:40.460Z,16.60
2023-10-19T17:55:28.456Z,16.50
2023-10-19T17:58:14.933Z,16.50
2023-10-19T18:01:01.120Z,16.50
2023-10-19T18:03:48.707Z,16.50
2023-10-19T18:06:35.762Z,16.40
2023-10-19T18:09:22.015Z,16.40
2023-10-19T18:12:09.692Z,16.30
2023-10-19T18:14:56.125Z,16.30
2023-10-19T18:17:42.241Z,16.20
2023-10-19T18:20:28.520Z,16.20
2023-10-19T18:23:15.915Z,16.10
2023-10-19T18:26:02.831Z,16.10
2023-10-19T18:28:50.476Z,16.00
2023-10-19T18:31:36.808Z,16.00
2023-10-19T18:34:26.346Z,15.90
2023-10-19T18:37:13.064Z,15.80
2023-10-19T18:39:59.535Z,15.80
2023-10-19T18:42:46.025Z,15.80
2023-10-19T18:45:34.142Z,15.80
2023-10-19T18:48:20.744Z,15.80
2023-10-19T18:51:08.734Z,15.70
2023-10-19T18:53:56.492Z,15.60
2023-10-19T18:56:43.026Z,15.50
2023-10-19T18:59:29.263Z,15.50
2023-10-19T19:02:17.774Z,15.40
2023-10-19T19:05:05.583Z,15.40
2023-10-19T19:07:52.451Z,15.40
2023-10-19T19:10:38.799Z,15.30
2023-10-19T19:13:25.790Z,15.20
2023-10-19T19:16:13.776Z,15.20
2023-10-19T19:19:01.539Z,15.10
2023-10-19T19:21:49.267Z,15.10
2023-10-19T19:24:39.256Z,15.00
2023-10-19T19:27:25.708Z,15.00
2023-10-19T19:30:12.865Z,15.00
2023-10-19T19:33:01.881Z,15.00
2023-10-19T19:35:49.723Z,15.00
2023-10-19T19:38:35.993Z,15.00
2023-10-19T19:41:22.579Z,15.00
2023-10-19T19:44:09.213Z,15.00
2023-10-19T19:46:55.691Z,15.00
2023-10-19T19:49:41.829Z,15.10
2023-10-19T19:52:29.568Z,15.10
2023-10-19T19:55:16.027Z,15.00
2023-10-19T19:58:02.123Z,15.00
2023-10-19T20:00:48.810Z,14.90
2023-10-19T20:03:35.440Z,14.90
2023-10-19T20:06:21.778Z,14.90
2023-10-19T20:09:12.183Z,14.90
2023-10-19T20:11:58.728Z,14.80
2023-10-19T20:14:45.911Z,14.80
2023-10-19T20:17:32.632Z,14.80
2023-10-19T20:20:23.932Z,14.90
2023-10-19T20:23:10.864Z,14.90
2023-10-19T20:26:02.674Z,14.90
2023-10-19T20:28:48.939Z,14.80
2023-10-19T20:31:35.174Z,14.80
2023-10-19T20:34:21.787Z,14.80
2023-10-19T20:37:07.779Z,14.80
2023-10-19T20:39:54.052Z,14.80
2023-10-19T20:42:44.827Z,14.80
2023-10-19T20:45:31.608Z,14.80
2023-10-19T20:48:18.365Z,14.80
2023-10-19T20:51:07.780Z,14.70
2023-10-19T20:53:55.427Z,14.70
2023-10-19T20:56:41.680Z,14.70
2023-10-19T20:59:29.372Z,14.60
2023-10-19T21:02:15.636Z,14.60
2023-10-19T21:05:01.907Z,14.60
2023-10-19T21:07:48.836Z,14.60
2023-10-19T21:10:35.311Z,14.50
2023-10-19T21:13:22.670Z,14.60
2023-10-19T21:16:11.998Z,14.60
2023-10-19T21:18:59.137Z,14.60
2023-10-19T21:21:45.815Z,14.60
2023-10-19T21:24:32.439Z,14.60
2023-10-19T21:27:19.474Z,14.60
2023-10-19T21:30:07.384Z,14.60
2023-10-19T21:32:55.400Z,14.60
2023-10-19T21:35:42.017Z,14.60
2023-10-19T21:38:28.662Z,14.60
2023-10-19T21:41:18.331Z,14.60
2023-10-19T21:44:06.269Z,14.60
2023-10-19T21:46:52.743Z,14.60
2023-10-19T21:49:41.153Z,14.60
2023-10-19T21:52:27.568Z,14.60
2023-10-19T21:55:13.717Z,14.60
2023-10-19T21:58:00.547Z,14.60
2023-10-19T22:00:57.741Z,14.60
2023-10-19T22:03:44.283Z,14.50
2023-10-19T22:06:32.776Z,14.50
2023-10-19T22:09:18.869Z,14.50
2023-10-19T22:12:05.200Z,14.50
2023-10-19T22:14:52.617Z,14.50
2023-10-19T22:17:39.065Z,14.40
2023-10-19T22:20:25.722Z,14.30
2023-10-19T22:23:15.702Z,14.30
2023-10-19T22:26:02.534Z,14.30
2023-10-19T22:28:48.703Z,14.30
2023-10-19T22:31:34.935Z,14.30
2023-10-19T22:34:21.595Z,14.30
2023-10-19T22:37:07.804Z,14.30
2023-10-19T22:39:55.983Z,14.20
2023-10-19T22:42:42.720Z,14.30
2023-10-19T22:45:28.923Z,14.30
2023-10-19T22:48:15.033Z,14.30
2023-10-19T22:51:01.517Z,14.30
2023-10-19T22:53:47.926Z,14.40
2023-10-19T22:56:35.603Z,14.40
2023-10-19T22:59:22.247Z,14.40
2023-10-19T23:02:08.426Z,14.40
2023-10-19T23:04:55.000Z,14.40
2023-10-19T23:07:42.313Z,14.50
2023-10-19T23:10:32.741Z,14.50
2023-10-19T23:13:21.480Z,14.50
2023-10-19T23:16:07.782Z,14.50
2023-10-19T23:18:56.152Z,14.50
2023-10-19T23:21:42.262Z,14.50
2023-10-19T23:24:30.667Z,14.50
2023-10-19T23:27:16.935Z,14.50
2023-10-19T23:30:07.956Z,14.50
2023-10-19T23:32:55.643Z,14.50
2023-10-19T23:35:42.745Z,14.50
2023-10-19T23:38:29.080Z,14.50
2023-10-19T23:41:15.714Z,14.50
2023-10-19T23:44:02.255Z,14.50
2023-10-19T23:46:50.205Z,14.50
2023-10-19T23:49:36.342Z,14.50
2023-10-19T23:52:22.585Z,14.40
2023-10-19T23:55:11.751Z,14.50
2023-10-19T23:57:58.694Z,14.50
